sensor_id;sensor_type;location;lat;lon;timestamp;temperature;humidity
44886;DHT22;36669;51.428;21.162;2023-02-28T00:01:34;-4.70;99.90
44886;DHT22;36669;51.428;21.162;2023-02-28T00:04:01;-4.70;99.90
44886;DHT22;36669;51.428;21.162;2023-02-28T00:06:30;-4.80;99.90
44886;DHT22;36669;51.428;21.162;2023-02-28T00:08:55;-4.80;99.90
44886;DHT22;36669;51.428;21.162;2023-02-28T00:11:22;-4.90;99.90
44886;DHT22;36669;51.428;21.162;2023-02-28T00:13:50;-4.90;99.90
44886;DHT22;36669;51.428;21.162;2023-02-28T00:16:20;-4.80;99.90
44886;DHT22;36669;51.428;21.162;2023-02-28T00:18:47;-4.80;99.90
44886;DHT22;36669;51.428;21.162;2023-02-28T00:21:17;-4.80;99.90
44886;DHT22;36669;51.428;21.162;2023-02-28T00:23:48;-4.80;99.90
44886;DHT22;36669;51.428;21.162;2023-02-28T00:26:15;-4.80;99.90
44886;DHT22;36669;51.428;21.162;2023-02-28T00:28:41;-4.80;99.90
44886;DHT22;36669;51.428;21.162;2023-02-28T00:31:06;-4.80;99.90
44886;DHT22;36669;51.428;21.162;2023-02-28T00:33:34;-4.80;99.90
44886;DHT22;36669;51.428;21.162;2023-02-28T00:36:09;-4.90;99.90
44886;DHT22;36669;51.428;21.162;2023-02-28T00:38:39;-4.90;99.90
44886;DHT22;36669;51.428;21.162;2023-02-28T00:41:05;-4.90;99.90
44886;DHT22;36669;51.428;21.162;2023-02-28T00:43:37;-5.00;99.90
44886;DHT22;36669;51.428;21.162;2023-02-28T00:46:11;-4.90;99.90
44886;DHT22;36669;51.428;21.162;2023-02-28T00:48:38;-5.00;99.90
44886;DHT22;36669;51.428;21.162;2023-02-28T00:51:05;-4.90;99.90
44886;DHT22;36669;51.428;21.162;2023-02-28T00:53:33;-4.90;99.90
44886;DHT22;36669;51.428;21.162;2023-02-28T00:56:00;-4.80;99.90
44886;DHT22;36669;51.428;21.162;2023-02-28T00:58:27;-4.80;99.90
44886;DHT22;36669;51.428;21.162;2023-02-28T01:00:57;-4.80;99.90
44886;DHT22;36669;51.428;21.162;2023-02-28T01:03:24;-4.70;99.90
44886;DHT22;36669;51.428;21.162;2023-02-28T01:05:51;-4.80;99.90
44886;DHT22;36669;51.428;21.162;2023-02-28T01:08:19;-4.70;99.90
44886;DHT22;36669;51.428;21.162;2023-02-28T01:10:47;-4.80;99.90
44886;DHT22;36669;51.428;21.162;2023-02-28T01:13:14;-4.80;99.90
44886;DHT22;36669;51.428;21.162;2023-02-28T01:15:49;-4.80;99.90
44886;DHT22;36669;51.428;21.162;2023-02-28T01:18:18;-4.80;99.90
44886;DHT22;36669;51.428;21.162;2023-02-28T01:20:47;-4.90;99.90
44886;DHT22;36669;51.428;21.162;2023-02-28T01:23:14;-4.90;99.90
44886;DHT22;36669;51.428;21.162;2023-02-28T01:25:42;-4.90;99.90
44886;DHT22;36669;51.428;21.162;2023-02-28T01:28:09;-4.90;99.90
44886;DHT22;36669;51.428;21.162;2023-02-28T01:30:37;-4.90;99.90
44886;DHT22;36669;51.428;21.162;2023-02-28T01:33:04;-5.00;99.90
44886;DHT22;36669;51.428;21.162;2023-02-28T01:35:34;-5.00;99.90
44886;DHT22;36669;51.428;21.162;2023-02-28T01:38:05;-5.00;99.90
44886;DHT22;36669;51.428;21.162;2023-02-28T01:40:33;-4.90;99.90
44886;DHT22;36669;51.428;21.162;2023-02-28T01:42:59;-4.90;99.90
44886;DHT22;36669;51.428;21.162;2023-02-28T01:45:33;-4.90;99.90
44886;DHT22;36669;51.428;21.162;2023-02-28T01:48:03;-4.80;99.90
44886;DHT22;36669;51.428;21.162;2023-02-28T01:50:38;-5.00;99.90
44886;DHT22;36669;51.428;21.162;2023-02-28T01:53:21;-5.00;99.90
44886;DHT22;36669;51.428;21.162;2023-02-28T01:55:52;-5.00;99.90
44886;DHT22;36669;51.428;21.162;2023-02-28T01:58:20;-5.10;99.90
44886;DHT22;36669;51.428;21.162;2023-02-28T02:00:46;-5.10;99.90
44886;DHT22;36669;51.428;21.162;2023-02-28T02:03:16;-5.10;99.90
44886;DHT22;36669;51.428;21.162;2023-02-28T02:05:46;-5.00;99.90
44886;DHT22;36669;51.428;21.162;2023-02-28T02:08:19;-5.00;99.90
44886;DHT22;36669;51.428;21.162;2023-02-28T02:10:55;-5.00;99.90
44886;DHT22;36669;51.428;21.162;2023-02-28T02:16:37;-5.10;99.90
44886;DHT22;36669;51.428;21.162;2023-02-28T02:30:53;-5.30;99.90
44886;DHT22;36669;51.428;21.162;2023-02-28T02:40:13;-5.40;99.90
44886;DHT22;36669;51.428;21.162;2023-02-28T02:43:03;-5.40;99.90
44886;DHT22;36669;51.428;21.162;2023-02-28T02:46:10;-5.50;99.90
44886;DHT22;36669;51.428;21.162;2023-02-28T02:48:45;-5.40;99.90
44886;DHT22;36669;51.428;21.162;2023-02-28T02:51:17;-5.40;99.90
44886;DHT22;36669;51.428;21.162;2023-02-28T02:53:57;-5.30;99.90
44886;DHT22;36669;51.428;21.162;2023-02-28T02:56:30;-5.30;99.90
44886;DHT22;36669;51.428;21.162;2023-02-28T02:59:11;-5.30;99.90
44886;DHT22;36669;51.428;21.162;2023-02-28T03:01:38;-5.30;99.90
44886;DHT22;36669;51.428;21.162;2023-02-28T03:04:13;-5.30;99.90
44886;DHT22;36669;51.428;21.162;2023-02-28T03:06:47;-5.20;99.90
44886;DHT22;36669;51.428;21.162;2023-02-28T03:09:15;-5.20;99.90
44886;DHT22;36669;51.428;21.162;2023-02-28T03:11:42;-5.20;99.90
44886;DHT22;36669;51.428;21.162;2023-02-28T03:23:42;-5.10;99.90
44886;DHT22;36669;51.428;21.162;2023-02-28T03:26:21;-5.10;99.90
44886;DHT22;36669;51.428;21.162;2023-02-28T03:31:59;-5.10;99.90
44886;DHT22;36669;51.428;21.162;2023-02-28T03:34:36;-5.10;99.90
44886;DHT22;36669;51.428;21.162;2023-02-28T03:37:25;-4.90;99.90
44886;DHT22;36669;51.428;21.162;2023-02-28T03:40:15;-5.00;99.90
44886;DHT22;36669;51.428;21.162;2023-02-28T03:42:46;-5.00;99.90
44886;DHT22;36669;51.428;21.162;2023-02-28T03:45:19;-5.00;99.90
44886;DHT22;36669;51.428;21.162;2023-02-28T03:48:13;-5.00;99.90
44886;DHT22;36669;51.428;21.162;2023-02-28T03:50:51;-5.00;99.90
44886;DHT22;36669;51.428;21.162;2023-02-28T03:53:29;-5.10;99.90
44886;DHT22;36669;51.428;21.162;2023-02-28T03:56:12;-5.10;99.90
44886;DHT22;36669;51.428;21.162;2023-02-28T03:59:01;-5.10;99.90
44886;DHT22;36669;51.428;21.162;2023-02-28T04:01:54;-5.10;99.90
44886;DHT22;36669;51.428;21.162;2023-02-28T04:04:22;-5.10;99.90
44886;DHT22;36669;51.428;21.162;2023-02-28T04:06:51;-5.10;99.90
44886;DHT22;36669;51.428;21.162;2023-02-28T04:09:17;-5.10;99.90
44886;DHT22;36669;51.428;21.162;2023-02-28T04:11:52;-5.10;99.90
44886;DHT22;36669;51.428;21.162;2023-02-28T04:14:19;-5.10;99.90
44886;DHT22;36669;51.428;21.162;2023-02-28T04:16:47;-5.10;99.90
44886;DHT22;36669;51.428;21.162;2023-02-28T04:19:35;-5.10;99.90
44886;DHT22;36669;51.428;21.162;2023-02-28T04:22:03;-5.10;99.90
44886;DHT22;36669;51.428;21.162;2023-02-28T04:24:30;-5.20;99.90
44886;DHT22;36669;51.428;21.162;2023-02-28T04:26:57;-5.20;99.90
44886;DHT22;36669;51.428;21.162;2023-02-28T04:29:31;-5.20;99.90
44886;DHT22;36669;51.428;21.162;2023-02-28T04:31:59;-5.20;99.90
44886;DHT22;36669;51.428;21.162;2023-02-28T04:34:27;-5.30;99.90
44886;DHT22;36669;51.428;21.162;2023-02-28T04:36:56;-5.30;99.90
44886;DHT22;36669;51.428;21.162;2023-02-28T04:39:35;-5.30;99.90
44886;DHT22;36669;51.428;21.162;2023-02-28T04:42:03;-5.30;99.90
44886;DHT22;36669;51.428;21.162;2023-02-28T04:44:31;-5.30;99.90
44886;DHT22;36669;51.428;21.162;2023-02-28T04:46:59;-5.40;99.90
44886;DHT22;36669;51.428;21.162;2023-02-28T04:49:26;-5.40;99.90
44886;DHT22;36669;51.428;21.162;2023-02-28T04:51:53;-5.40;99.90
44886;DHT22;36669;51.428;21.162;2023-02-28T04:54:19;-5.40;99.90
44886;DHT22;36669;51.428;21.162;2023-02-28T04:56:45;-5.40;99.90
44886;DHT22;36669;51.428;21.162;2023-02-28T04:59:10;-5.50;99.90
44886;DHT22;36669;51.428;21.162;2023-02-28T05:01:38;-5.50;99.90
44886;DHT22;36669;51.428;21.162;2023-02-28T05:04:05;-5.50;99.90
44886;DHT22;36669;51.428;21.162;2023-02-28T05:06:34;-5.50;99.90
44886;DHT22;36669;51.428;21.162;2023-02-28T05:09:00;-5.50;99.90
44886;DHT22;36669;51.428;21.162;2023-02-28T05:11:30;-5.50;99.90
44886;DHT22;36669;51.428;21.162;2023-02-28T05:14:05;-5.50;99.90
44886;DHT22;36669;51.428;21.162;2023-02-28T05:16:35;-5.60;99.90
44886;DHT22;36669;51.428;21.162;2023-02-28T05:19:02;-5.60;99.90
44886;DHT22;36669;51.428;21.162;2023-02-28T05:21:31;-5.60;99.90
44886;DHT22;36669;51.428;21.162;2023-02-28T05:24:11;-5.60;99.90
44886;DHT22;36669;51.428;21.162;2023-02-28T05:26:42;-5.60;99.90
44886;DHT22;36669;51.428;21.162;2023-02-28T05:29:10;-5.70;99.90
44886;DHT22;36669;51.428;21.162;2023-02-28T05:31:39;-5.70;99.90
44886;DHT22;36669;51.428;21.162;2023-02-28T05:34:06;-5.70;99.90
44886;DHT22;36669;51.428;21.162;2023-02-28T05:36:33;-5.70;99.90
44886;DHT22;36669;51.428;21.162;2023-02-28T05:39:01;-5.70;99.90
44886;DHT22;36669;51.428;21.162;2023-02-28T05:41:28;-5.70;99.90
44886;DHT22;36669;51.428;21.162;2023-02-28T05:43:57;-5.60;99.90
44886;DHT22;36669;51.428;21.162;2023-02-28T05:46:25;-5.70;99.90
44886;DHT22;36669;51.428;21.162;2023-02-28T05:48:52;-5.60;99.90
44886;DHT22;36669;51.428;21.162;2023-02-28T05:51:18;-5.60;99.90
44886;DHT22;36669;51.428;21.162;2023-02-28T05:53:46;-5.50;99.90
44886;DHT22;36669;51.428;21.162;2023-02-28T05:56:15;-5.40;99.90
44886;DHT22;36669;51.428;21.162;2023-02-28T05:58:43;-5.30;99.90
44886;DHT22;36669;51.428;21.162;2023-02-28T06:01:35;-5.30;99.90
44886;DHT22;36669;51.428;21.162;2023-02-28T06:04:06;-5.20;99.90
44886;DHT22;36669;51.428;21.162;2023-02-28T06:06:34;-5.20;99.90
44886;DHT22;36669;51.428;21.162;2023-02-28T06:09:03;-5.10;99.90
44886;DHT22;36669;51.428;21.162;2023-02-28T06:11:30;-5.00;99.90
44886;DHT22;36669;51.428;21.162;2023-02-28T06:14:20;-4.90;99.90
44886;DHT22;36669;51.428;21.162;2023-02-28T06:16:46;-4.70;99.90
44886;DHT22;36669;51.428;21.162;2023-02-28T06:19:13;-4.60;99.90
44886;DHT22;36669;51.428;21.162;2023-02-28T06:21:41;-4.40;99.90
44886;DHT22;36669;51.428;21.162;2023-02-28T06:24:09;-4.20;99.90
44886;DHT22;36669;51.428;21.162;2023-02-28T06:26:37;-4.10;99.90
44886;DHT22;36669;51.428;21.162;2023-02-28T06:29:04;-4.00;99.90
44886;DHT22;36669;51.428;21.162;2023-02-28T06:31:31;-3.90;99.90
44886;DHT22;36669;51.428;21.162;2023-02-28T06:33:58;-3.80;99.90
44886;DHT22;36669;51.428;21.162;2023-02-28T06:36:26;-3.70;99.90
44886;DHT22;36669;51.428;21.162;2023-02-28T06:38:54;-3.60;99.90
44886;DHT22;36669;51.428;21.162;2023-02-28T06:41:25;-3.40;99.90
44886;DHT22;36669;51.428;21.162;2023-02-28T06:43:53;-3.30;99.90
44886;DHT22;36669;51.428;21.162;2023-02-28T06:46:20;-3.10;99.90
44886;DHT22;36669;51.428;21.162;2023-02-28T06:48:48;-2.90;99.90
44886;DHT22;36669;51.428;21.162;2023-02-28T06:51:26;-2.80;99.90
44886;DHT22;36669;51.428;21.162;2023-02-28T06:53:54;-2.70;99.90
44886;DHT22;36669;51.428;21.162;2023-02-28T06:56:20;-2.60;99.90
44886;DHT22;36669;51.428;21.162;2023-02-28T06:58:48;-2.40;99.90
44886;DHT22;36669;51.428;21.162;2023-02-28T07:01:14;-2.40;99.90
44886;DHT22;36669;51.428;21.162;2023-02-28T07:03:41;-2.20;99.90
44886;DHT22;36669;51.428;21.162;2023-02-28T07:06:07;-2.10;99.90
44886;DHT22;36669;51.428;21.162;2023-02-28T07:08:34;-2.00;99.90
44886;DHT22;36669;51.428;21.162;2023-02-28T07:11:04;-1.90;99.90
44886;DHT22;36669;51.428;21.162;2023-02-28T07:13:32;-1.80;99.90
44886;DHT22;36669;51.428;21.162;2023-02-28T07:16:04;-1.70;99.90
44886;DHT22;36669;51.428;21.162;2023-02-28T07:18:33;-1.60;99.90
44886;DHT22;36669;51.428;21.162;2023-02-28T07:21:07;-1.60;99.90
44886;DHT22;36669;51.428;21.162;2023-02-28T07:23:34;-1.50;99.90
44886;DHT22;36669;51.428;21.162;2023-02-28T07:26:02;-1.30;99.90
44886;DHT22;36669;51.428;21.162;2023-02-28T07:28:28;-1.20;99.90
44886;DHT22;36669;51.428;21.162;2023-02-28T07:31:02;-1.20;99.90
44886;DHT22;36669;51.428;21.162;2023-02-28T07:33:30;-1.10;99.90
44886;DHT22;36669;51.428;21.162;2023-02-28T07:36:14;-1.00;99.90
44886;DHT22;36669;51.428;21.162;2023-02-28T07:38:43;-0.80;99.90
44886;DHT22;36669;51.428;21.162;2023-02-28T07:41:10;-0.70;99.90
44886;DHT22;36669;51.428;21.162;2023-02-28T07:43:36;-0.60;99.90
44886;DHT22;36669;51.428;21.162;2023-02-28T07:46:15;-0.50;99.90
44886;DHT22;36669;51.428;21.162;2023-02-28T07:48:43;-0.40;99.90
44886;DHT22;36669;51.428;21.162;2023-02-28T07:51:10;-0.30;99.90
44886;DHT22;36669;51.428;21.162;2023-02-28T07:53:39;-0.20;99.90
44886;DHT22;36669;51.428;21.162;2023-02-28T07:56:06;-0.10;99.90
44886;DHT22;36669;51.428;21.162;2023-02-28T07:58:35;0.00;99.90
44886;DHT22;36669;51.428;21.162;2023-02-28T08:01:10;0.00;99.90
44886;DHT22;36669;51.428;21.162;2023-02-28T08:03:38;0.10;99.90
44886;DHT22;36669;51.428;21.162;2023-02-28T08:06:05;0.20;99.90
44886;DHT22;36669;51.428;21.162;2023-02-28T08:08:34;0.30;99.90
44886;DHT22;36669;51.428;21.162;2023-02-28T08:11:03;0.30;99.90
44886;DHT22;36669;51.428;21.162;2023-02-28T08:13:31;0.40;99.90
44886;DHT22;36669;51.428;21.162;2023-02-28T08:15:58;0.40;99.90
44886;DHT22;36669;51.428;21.162;2023-02-28T08:18:28;0.40;99.90
44886;DHT22;36669;51.428;21.162;2023-02-28T08:20:57;0.50;99.90
44886;DHT22;36669;51.428;21.162;2023-02-28T08:23:24;0.60;99.90
44886;DHT22;36669;51.428;21.162;2023-02-28T08:25:55;0.60;99.90
44886;DHT22;36669;51.428;21.162;2023-02-28T08:28:22;0.70;99.90
44886;DHT22;36669;51.428;21.162;2023-02-28T08:30:49;0.80;99.90
44886;DHT22;36669;51.428;21.162;2023-02-28T08:33:18;0.80;99.90
44886;DHT22;36669;51.428;21.162;2023-02-28T08:35:43;0.80;99.90
44886;DHT22;36669;51.428;21.162;2023-02-28T08:38:10;0.80;99.90
44886;DHT22;36669;51.428;21.162;2023-02-28T08:40:37;0.80;99.90
44886;DHT22;36669;51.428;21.162;2023-02-28T08:43:03;0.90;99.90
44886;DHT22;36669;51.428;21.162;2023-02-28T08:45:30;1.00;99.90
44886;DHT22;36669;51.428;21.162;2023-02-28T08:47:58;1.10;99.90
44886;DHT22;36669;51.428;21.162;2023-02-28T08:50:23;1.20;99.90
44886;DHT22;36669;51.428;21.162;2023-02-28T08:52:50;1.30;99.90
44886;DHT22;36669;51.428;21.162;2023-02-28T08:55:17;1.40;99.90
44886;DHT22;36669;51.428;21.162;2023-02-28T08:57:44;1.40;99.90
44886;DHT22;36669;51.428;21.162;2023-02-28T09:00:12;1.50;99.90
44886;DHT22;36669;51.428;21.162;2023-02-28T09:02:42;1.50;99.90
44886;DHT22;36669;51.428;21.162;2023-02-28T09:05:12;1.60;99.90
44886;DHT22;36669;51.428;21.162;2023-02-28T09:07:39;1.50;99.90
44886;DHT22;36669;51.428;21.162;2023-02-28T09:10:08;1.50;99.90
44886;DHT22;36669;51.428;21.162;2023-02-28T09:12:35;1.50;99.90
44886;DHT22;36669;51.428;21.162;2023-02-28T09:15:04;1.50;99.90
44886;DHT22;36669;51.428;21.162;2023-02-28T09:17:31;1.50;99.90
44886;DHT22;36669;51.428;21.162;2023-02-28T09:19:58;1.60;99.90
44886;DHT22;36669;51.428;21.162;2023-02-28T09:22:25;1.70;99.90
44886;DHT22;36669;51.428;21.162;2023-02-28T09:24:53;1.70;99.90
44886;DHT22;36669;51.428;21.162;2023-02-28T09:27:19;1.80;99.90
44886;DHT22;36669;51.428;21.162;2023-02-28T09:29:46;1.90;99.90
44886;DHT22;36669;51.428;21.162;2023-02-28T09:32:13;1.90;99.90
44886;DHT22;36669;51.428;21.162;2023-02-28T09:34:40;1.90;99.90
44886;DHT22;36669;51.428;21.162;2023-02-28T09:37:10;1.90;99.90
44886;DHT22;36669;51.428;21.162;2023-02-28T09:39:40;2.00;99.90
44886;DHT22;36669;51.428;21.162;2023-02-28T09:42:18;2.20;99.90
44886;DHT22;36669;51.428;21.162;2023-02-28T09:44:52;2.30;99.90
44886;DHT22;36669;51.428;21.162;2023-02-28T09:47:29;2.40;99.90
44886;DHT22;36669;51.428;21.162;2023-02-28T09:49:59;2.50;99.90
44886;DHT22;36669;51.428;21.162;2023-02-28T09:52:30;2.60;99.90
44886;DHT22;36669;51.428;21.162;2023-02-28T09:55:37;2.80;99.90
44886;DHT22;36669;51.428;21.162;2023-02-28T09:58:16;2.90;99.90
44886;DHT22;36669;51.428;21.162;2023-02-28T10:01:30;3.10;99.90
44886;DHT22;36669;51.428;21.162;2023-02-28T10:04:23;3.30;99.90
44886;DHT22;36669;51.428;21.162;2023-02-28T10:06:53;3.50;99.90
44886;DHT22;36669;51.428;21.162;2023-02-28T10:09:29;3.50;99.90
44886;DHT22;36669;51.428;21.162;2023-02-28T10:12:02;3.40;99.90
44886;DHT22;36669;51.428;21.162;2023-02-28T10:14:40;3.70;99.90
44886;DHT22;36669;51.428;21.162;2023-02-28T10:17:25;3.80;99.90
44886;DHT22;36669;51.428;21.162;2023-02-28T10:20:11;4.00;99.90
44886;DHT22;36669;51.428;21.162;2023-02-28T10:23:13;4.30;99.90
44886;DHT22;36669;51.428;21.162;2023-02-28T10:25:57;4.40;99.90
44886;DHT22;36669;51.428;21.162;2023-02-28T10:28:29;4.70;99.90
44886;DHT22;36669;51.428;21.162;2023-02-28T10:30:58;4.80;97.50
44886;DHT22;36669;51.428;21.162;2023-02-28T10:33:31;4.60;96.90
44886;DHT22;36669;51.428;21.162;2023-02-28T10:35:58;5.00;97.10
44886;DHT22;36669;51.428;21.162;2023-02-28T10:38:32;5.10;95.40
44886;DHT22;36669;51.428;21.162;2023-02-28T10:44:14;5.40;95.10
44886;DHT22;36669;51.428;21.162;2023-02-28T10:46:41;5.60;93.20
44886;DHT22;36669;51.428;21.162;2023-02-28T10:49:30;5.80;93.00
44886;DHT22;36669;51.428;21.162;2023-02-28T10:51:59;6.00;92.30
44886;DHT22;36669;51.428;21.162;2023-02-28T10:54:36;6.00;92.10
44886;DHT22;36669;51.428;21.162;2023-02-28T10:57:23;6.00;91.70
44886;DHT22;36669;51.428;21.162;2023-02-28T11:00:19;5.90;91.70
44886;DHT22;36669;51.428;21.162;2023-02-28T11:02:45;6.10;90.20
44886;DHT22;36669;51.428;21.162;2023-02-28T11:05:35;5.70;90.60
44886;DHT22;36669;51.428;21.162;2023-02-28T11:08:16;5.50;91.20
44886;DHT22;36669;51.428;21.162;2023-02-28T11:10:54;5.40;90.20
44886;DHT22;36669;51.428;21.162;2023-02-28T11:13:27;5.70;90.10
44886;DHT22;36669;51.428;21.162;2023-02-28T11:15:59;5.60;90.60
44886;DHT22;36669;51.428;21.162;2023-02-28T11:18:37;5.70;91.20
44886;DHT22;36669;51.428;21.162;2023-02-28T11:21:06;5.90;91.00
44886;DHT22;36669;51.428;21.162;2023-02-28T11:23:35;6.20;88.80
44886;DHT22;36669;51.428;21.162;2023-02-28T11:26:04;6.50;90.20
44886;DHT22;36669;51.428;21.162;2023-02-28T11:28:34;6.80;88.40
44886;DHT22;36669;51.428;21.162;2023-02-28T11:31:14;6.90;87.00
44886;DHT22;36669;51.428;21.162;2023-02-28T11:34:22;6.90;88.10
44886;DHT22;36669;51.428;21.162;2023-02-28T11:36:49;7.00;84.60
44886;DHT22;36669;51.428;21.162;2023-02-28T11:39:18;6.70;84.10
44886;DHT22;36669;51.428;21.162;2023-02-28T11:56:44;6.70;83.80
44886;DHT22;36669;51.428;21.162;2023-02-28T12:02:35;7.40;83.40
44886;DHT22;36669;51.428;21.162;2023-02-28T12:05:40;7.20;82.40
44886;DHT22;36669;51.428;21.162;2023-02-28T12:14:21;7.70;80.90
44886;DHT22;36669;51.428;21.162;2023-02-28T12:28:12;7.30;80.60
44886;DHT22;36669;51.428;21.162;2023-02-28T12:30:56;7.40;79.60
44886;DHT22;36669;51.428;21.162;2023-02-28T12:33:28;7.80;78.70
44886;DHT22;36669;51.428;21.162;2023-02-28T12:35:59;8.10;76.80
44886;DHT22;36669;51.428;21.162;2023-02-28T12:38:35;7.80;75.90
44886;DHT22;36669;51.428;21.162;2023-02-28T12:41:14;7.30;75.70
44886;DHT22;36669;51.428;21.162;2023-02-28T12:43:55;6.30;78.30
44886;DHT22;36669;51.428;21.162;2023-02-28T12:46:35;5.40;81.60
44886;DHT22;36669;51.428;21.162;2023-02-28T12:49:41;5.30;84.30
44886;DHT22;36669;51.428;21.162;2023-02-28T12:52:16;5.90;84.60
44886;DHT22;36669;51.428;21.162;2023-02-28T13:00:29;7.50;79.30
44886;DHT22;36669;51.428;21.162;2023-02-28T13:06:09;7.80;78.90
44886;DHT22;36669;51.428;21.162;2023-02-28T13:09:11;8.40;77.90
44886;DHT22;36669;51.428;21.162;2023-02-28T13:11:51;8.70;74.80
44886;DHT22;36669;51.428;21.162;2023-02-28T13:19:55;8.70;73.90
44886;DHT22;36669;51.428;21.162;2023-02-28T13:25:01;9.00;73.00
44886;DHT22;36669;51.428;21.162;2023-02-28T13:27:39;8.10;72.20
44886;DHT22;36669;51.428;21.162;2023-02-28T13:33:28;7.80;75.10
44886;DHT22;36669;51.428;21.162;2023-02-28T13:38:49;8.60;74.80
44886;DHT22;36669;51.428;21.162;2023-02-28T13:41:44;8.80;72.20
44886;DHT22;36669;51.428;21.162;2023-02-28T13:44:22;8.90;71.20
44886;DHT22;36669;51.428;21.162;2023-02-28T13:49:32;8.90;69.40
44886;DHT22;36669;51.428;21.162;2023-02-28T13:54:58;9.50;69.00
44886;DHT22;36669;51.428;21.162;2023-02-28T13:58:09;9.60;68.40
44886;DHT22;36669;51.428;21.162;2023-02-28T14:02:02;8.80;68.50
44886;DHT22;36669;51.428;21.162;2023-02-28T14:07:00;8.90;68.00
44886;DHT22;36669;51.428;21.162;2023-02-28T14:18:32;10.00;65.70
44886;DHT22;36669;51.428;21.162;2023-02-28T14:21:22;10.10;64.70
44886;DHT22;36669;51.428;21.162;2023-02-28T14:27:29;9.20;65.30
44886;DHT22;36669;51.428;21.162;2023-02-28T14:36:12;9.10;66.40
44886;DHT22;36669;51.428;21.162;2023-02-28T14:38:50;9.50;65.70
44886;DHT22;36669;51.428;21.162;2023-02-28T14:41:36;9.50;65.00
44886;DHT22;36669;51.428;21.162;2023-02-28T14:44:19;9.30;63.80
44886;DHT22;36669;51.428;21.162;2023-02-28T14:46:49;9.60;63.80
44886;DHT22;36669;51.428;21.162;2023-02-28T14:49:36;9.60;63.70
44886;DHT22;36669;51.428;21.162;2023-02-28T14:52:29;9.60;63.50
44886;DHT22;36669;51.428;21.162;2023-02-28T14:55:14;9.40;63.40
44886;DHT22;36669;51.428;21.162;2023-02-28T14:57:54;9.50;64.70
44886;DHT22;36669;51.428;21.162;2023-02-28T15:00:47;9.50;63.00
44886;DHT22;36669;51.428;21.162;2023-02-28T15:03:33;8.60;64.50
44886;DHT22;36669;51.428;21.162;2023-02-28T15:06:04;8.40;65.50
44886;DHT22;36669;51.428;21.162;2023-02-28T15:08:35;8.30;65.90
44886;DHT22;36669;51.428;21.162;2023-02-28T15:16:11;8.80;64.70
44886;DHT22;36669;51.428;21.162;2023-02-28T15:19:33;8.90;64.30
44886;DHT22;36669;51.428;21.162;2023-02-28T15:22:10;9.10;64.00
44886;DHT22;36669;51.428;21.162;2023-02-28T15:24:51;8.40;64.00
44886;DHT22;36669;51.428;21.162;2023-02-28T15:27:29;7.90;65.40
44886;DHT22;36669;51.428;21.162;2023-02-28T15:30:00;7.30;66.40
44886;DHT22;36669;51.428;21.162;2023-02-28T15:32:35;6.90;68.00
44886;DHT22;36669;51.428;21.162;2023-02-28T15:35:19;6.60;68.50
44886;DHT22;36669;51.428;21.162;2023-02-28T15:40:53;6.10;69.30
44886;DHT22;36669;51.428;21.162;2023-02-28T15:43:37;6.30;70.50
44886;DHT22;36669;51.428;21.162;2023-02-28T15:46:09;5.90;69.70
44886;DHT22;36669;51.428;21.162;2023-02-28T15:48:42;5.70;70.90
44886;DHT22;36669;51.428;21.162;2023-02-28T15:51:33;5.80;71.40
44886;DHT22;36669;51.428;21.162;2023-02-28T15:54:08;5.50;72.40
44886;DHT22;36669;51.428;21.162;2023-02-28T15:56:52;5.40;72.80
44886;DHT22;36669;51.428;21.162;2023-02-28T15:59:28;5.10;73.70
44886;DHT22;36669;51.428;21.162;2023-02-28T16:02:18;4.40;75.00
44886;DHT22;36669;51.428;21.162;2023-02-28T16:07:39;4.00;77.20
44886;DHT22;36669;51.428;21.162;2023-02-28T16:10:07;3.70;78.20
44886;DHT22;36669;51.428;21.162;2023-02-28T16:12:37;3.50;79.50
44886;DHT22;36669;51.428;21.162;2023-02-28T16:15:33;3.20;80.80
44886;DHT22;36669;51.428;21.162;2023-02-28T16:17:58;3.00;82.50
44886;DHT22;36669;51.428;21.162;2023-02-28T16:20:36;2.70;84.20
44886;DHT22;36669;51.428;21.162;2023-02-28T16:23:02;2.50;86.10
44886;DHT22;36669;51.428;21.162;2023-02-28T16:25:48;2.30;88.50
44886;DHT22;36669;51.428;21.162;2023-02-28T16:28:31;2.20;90.70
44886;DHT22;36669;51.428;21.162;2023-02-28T16:31:00;2.00;92.60
44886;DHT22;36669;51.428;21.162;2023-02-28T16:33:33;1.80;94.20
44886;DHT22;36669;51.428;21.162;2023-02-28T16:36:01;1.80;96.10
44886;DHT22;36669;51.428;21.162;2023-02-28T16:38:29;1.70;98.00
44886;DHT22;36669;51.428;21.162;2023-02-28T16:40:57;1.60;99.70
44886;DHT22;36669;51.428;21.162;2023-02-28T16:43:32;1.50;99.90
44886;DHT22;36669;51.428;21.162;2023-02-28T16:45:59;1.40;99.90
44886;DHT22;36669;51.428;21.162;2023-02-28T16:48:28;1.30;99.90
44886;DHT22;36669;51.428;21.162;2023-02-28T16:50:56;1.20;99.90
44886;DHT22;36669;51.428;21.162;2023-02-28T16:53:22;1.10;99.90
44886;DHT22;36669;51.428;21.162;2023-02-28T16:55:50;1.10;99.90
44886;DHT22;36669;51.428;21.162;2023-02-28T16:58:18;1.00;99.90
44886;DHT22;36669;51.428;21.162;2023-02-28T17:00:47;1.00;99.90
44886;DHT22;36669;51.428;21.162;2023-02-28T17:03:29;0.90;99.90
44886;DHT22;36669;51.428;21.162;2023-02-28T17:05:55;0.90;99.90
44886;DHT22;36669;51.428;21.162;2023-02-28T17:08:22;0.90;99.90
44886;DHT22;36669;51.428;21.162;2023-02-28T17:10:48;0.80;99.90
44886;DHT22;36669;51.428;21.162;2023-02-28T17:13:15;0.70;99.90
44886;DHT22;36669;51.428;21.162;2023-02-28T17:15:44;0.60;99.90
44886;DHT22;36669;51.428;21.162;2023-02-28T17:18:17;0.60;99.90
44886;DHT22;36669;51.428;21.162;2023-02-28T17:20:52;0.50;99.90
44886;DHT22;36669;51.428;21.162;2023-02-28T17:23:17;0.40;99.90
44886;DHT22;36669;51.428;21.162;2023-02-28T17:25:43;0.50;99.90
44886;DHT22;36669;51.428;21.162;2023-02-28T17:28:21;0.50;99.90
44886;DHT22;36669;51.428;21.162;2023-02-28T17:30:48;0.40;99.90
44886;DHT22;36669;51.428;21.162;2023-02-28T17:33:15;0.40;99.90
44886;DHT22;36669;51.428;21.162;2023-02-28T17:35:41;0.30;99.90
44886;DHT22;36669;51.428;21.162;2023-02-28T17:38:18;0.30;99.90
44886;DHT22;36669;51.428;21.162;2023-02-28T17:40:45;0.30;99.90
44886;DHT22;36669;51.428;21.162;2023-02-28T17:43:12;0.30;99.90
44886;DHT22;36669;51.428;21.162;2023-02-28T17:45:40;0.20;99.90
44886;DHT22;36669;51.428;21.162;2023-02-28T17:48:18;0.20;99.90
44886;DHT22;36669;51.428;21.162;2023-02-28T17:50:43;0.00;99.90
44886;DHT22;36669;51.428;21.162;2023-02-28T17:53:10;0.00;99.90
44886;DHT22;36669;51.428;21.162;2023-02-28T17:55:37;-0.10;99.90
44886;DHT22;36669;51.428;21.162;2023-02-28T17:58:08;-0.10;99.90
44886;DHT22;36669;51.428;21.162;2023-02-28T18:00:36;-0.20;99.90
44886;DHT22;36669;51.428;21.162;2023-02-28T18:03:06;-0.30;99.90
44886;DHT22;36669;51.428;21.162;2023-02-28T18:05:34;-0.40;99.90
44886;DHT22;36669;51.428;21.162;2023-02-28T18:08:01;-0.40;99.90
44886;DHT22;36669;51.428;21.162;2023-02-28T18:10:28;-0.40;99.90
44886;DHT22;36669;51.428;21.162;2023-02-28T18:12:59;-0.50;99.90